createdAt,value
2017-01-13T00:00:20.059Z,91.14
2017-01-13T00:01:33.967Z,91.33
2017-01-13T00:02:47.586Z,91.52
2017-01-13T00:04:01.363Z,91.99
2017-01-13T00:05:14.938Z,92.18
2017-01-13T00:06:28.583Z,91.89
2017-01-13T00:07:43.220Z,92.56
2017-01-13T00:08:56.760Z,92.85
2017-01-13T00:10:11.670Z,93.41
2017-01-13T00:11:25.364Z,92.85
2017-01-13T00:12:38.898Z,93.04
2017-01-13T00:13:52.711Z,92.94
2017-01-13T00:15:06.507Z,92.56
2017-01-13T00:16:20.056Z,92.56
2017-01-13T00:17:33.621Z,92.66
2017-01-13T00:18:47.209Z,92.75
2017-01-13T00:20:01.654Z,92.37
2017-01-13T00:21:16.110Z,91.71
2017-01-13T00:22:29.720Z,91.52
2017-01-13T00:23:43.298Z,91.61
2017-01-13T00:24:56.845Z,91.14
2017-01-13T00:26:10.749Z,91.52
2017-01-13T00:27:24.620Z,91.71
2017-01-13T00:28:38.283Z,91.61
2017-01-13T00:29:51.893Z,91.52
2017-01-13T00:31:05.489Z,91.42
2017-01-13T00:32:19.441Z,90.95
2017-01-13T00:33:33.458Z,88.86
2017-01-13T00:34:46.988Z,87.72
2017-01-13T00:36:00.860Z,86.01
2017-01-13T00:37:14.387Z,84.59
2017-01-13T00:38:28.244Z,83.26
2017-01-13T00:39:41.783Z,82.26
2017-01-13T00:40:55.369Z,81.12
2017-01-13T00:42:09.207Z,79.22
2017-01-13T00:43:22.722Z,77.7
2017-01-13T00:44:36.540Z,78.27
2017-01-13T00:45:50.170Z,76.93
2017-01-13T00:47:04.322Z,76.93
2017-01-13T00:48:17.894Z,74.27
2017-01-13T00:49:31.500Z,73.71
2017-01-13T00:50:45.364Z,73.42
2017-01-13T00:51:59.015Z,73.9
2017-01-13T00:53:12.633Z,74.85
2017-01-13T00:54:26.794Z,75.42
2017-01-13T00:55:40.461Z,76.65
2017-01-13T00:56:54.273Z,76.32
2017-01-13T00:58:07.971Z,76.04
2017-01-13T00:59:21.973Z,75.38
2017-01-13T01:00:35.890Z,74.33
2017-01-13T01:01:49.718Z,74.52
2017-01-13T01:03:03.723Z,73.86
2017-01-13T01:04:17.249Z,73.76
2017-01-13T01:05:31.232Z,73.1
2017-01-13T01:06:47.239Z,72.72
2017-01-13T01:08:00.989Z,72.95
2017-01-13T01:09:15.629Z,72.53
2017-01-13T01:10:29.273Z,72.34
2017-01-13T01:11:42.823Z,72.63
2017-01-13T01:12:56.863Z,72.15
2017-01-13T01:14:10.575Z,71.77
2017-01-13T01:15:25.157Z,71.01
2017-01-13T01:16:38.774Z,70.54
2017-01-13T01:17:52.346Z,69.96
2017-01-13T01:19:07.272Z,70.06
2017-01-13T01:20:21.038Z,70.25
2017-01-13T01:21:34.871Z,70.54
2017-01-13T01:22:48.389Z,70.54
2017-01-13T01:24:03.278Z,71.11
2017-01-13T01:25:16.790Z,71.01
2017-01-13T01:26:31.247Z,70.15
2017-01-13T01:27:45.946Z,71.01
2017-01-13T01:29:01.328Z,72.06
2017-01-13T01:30:14.891Z,72.63
2017-01-13T01:31:28.442Z,72.63
2017-01-13T01:32:42.002Z,73.48
2017-01-13T01:33:55.858Z,74.05
2017-01-13T01:35:10.764Z,74.81
2017-01-13T01:36:24.392Z,76.42
2017-01-13T01:37:37.991Z,77.24
2017-01-13T01:38:51.988Z,77.24
2017-01-13T01:40:06.799Z,76.67
2017-01-13T01:41:20.428Z,76.29
2017-01-13T01:42:34.156Z,76.1
2017-01-13T01:43:48.200Z,75.05
2017-01-13T01:45:02.180Z,73.92
2017-01-13T01:46:16.129Z,73.92
2017-01-13T01:47:29.712Z,73.72
2017-01-13T01:48:43.220Z,73.72
2017-01-13T01:50:09.808Z,73.72
2017-01-13T01:51:23.601Z,73.63
2017-01-13T01:52:37.639Z,73.07
2017-01-13T01:53:51.171Z,72.97
2017-01-13T01:55:05.469Z,72.68
2017-01-13T01:56:19.108Z,72.68
2017-01-13T01:57:32.886Z,71.73
2017-01-13T01:58:46.905Z,71.92
2017-01-13T02:00:00.444Z,71.92
2017-01-13T02:01:14.121Z,71.64
2017-01-13T02:02:28.309Z,71.83
2017-01-13T02:03:42.183Z,72.02
2017-01-13T02:04:55.754Z,71.83
2017-01-13T02:06:09.436Z,72.4
2017-01-13T02:07:22.988Z,73.25
2017-01-13T02:08:36.543Z,72.78
2017-01-13T02:09:50.758Z,73.92
2017-01-13T02:11:05.612Z,73.92
2017-01-13T02:12:19.625Z,74.01
2017-01-13T02:13:33.328Z,74.49
2017-01-13T02:14:46.767Z,74.68
2017-01-13T02:16:00.602Z,74.2
2017-01-13T02:17:15.363Z,74.3
2017-01-13T02:18:29.513Z,74.39
2017-01-13T02:19:43.508Z,74.49
2017-01-13T02:20:57.063Z,73.69
2017-01-13T02:22:11.065Z,74.49
2017-01-13T02:23:26.842Z,74.64
2017-01-13T02:24:40.422Z,74.35
2017-01-13T02:25:53.964Z,74.73
2017-01-13T02:27:07.603Z,74.64
2017-01-13T02:28:21.438Z,74.92
2017-01-13T02:29:34.995Z,74.64
2017-01-13T02:30:48.574Z,74.83
2017-01-13T02:32:02.104Z,74.83
2017-01-13T02:33:15.739Z,74.26
2017-01-13T02:34:29.570Z,74.73
2017-01-13T02:35:43.041Z,74.92
2017-01-13T02:36:56.661Z,74.73
2017-01-13T02:38:10.267Z,74.64
2017-01-13T02:39:23.845Z,74.92
2017-01-13T02:40:37.881Z,74.54
2017-01-13T02:41:51.819Z,75.21
2017-01-13T02:43:05.601Z,75.21
2017-01-13T02:44:19.222Z,75.4
2017-01-13T02:45:32.827Z,75.49
2017-01-13T02:46:46.669Z,75.59
2017-01-13T02:48:00.187Z,75.68
2017-01-13T02:49:13.946Z,75.87
2017-01-13T02:50:28.989Z,76.06
2017-01-13T02:51:42.543Z,76.15
2017-01-13T02:52:57.022Z,76.25
2017-01-13T02:54:10.749Z,76.25
2017-01-13T02:55:24.309Z,75.96
2017-01-13T02:56:37.973Z,76.44
2017-01-13T02:57:51.617Z,76.59
2017-01-13T02:59:05.508Z,76.97
2017-01-13T03:00:19.113Z,76.78
2017-01-13T03:01:32.734Z,77.25
2017-01-13T03:02:46.212Z,77.25
2017-01-13T03:03:59.699Z,77.45
2017-01-13T03:05:13.640Z,77.35
2017-01-13T03:06:27.122Z,78.02
2017-01-13T03:07:40.725Z,77.73
2017-01-13T03:08:54.265Z,77.54
2017-01-13T03:10:07.959Z,78.02
2017-01-13T03:11:22.201Z,78.11
2017-01-13T03:12:35.738Z,78.49
2017-01-13T03:13:49.699Z,78.2
2017-01-13T03:15:03.364Z,78.11
2017-01-13T03:16:16.946Z,78.77
2017-01-13T03:17:30.734Z,78.77
2017-01-13T03:18:44.252Z,78.77
2017-01-13T03:19:57.924Z,79.63
2017-01-13T03:21:11.671Z,79.15
2017-01-13T03:23:16.371Z,79.72
2017-01-13T03:24:30.157Z,79.63
2017-01-13T03:25:43.747Z,79.63
2017-01-13T03:26:57.293Z,80.19
2017-01-13T03:28:10.858Z,80.95
2017-01-13T03:29:25.041Z,80.76
2017-01-13T03:30:38.951Z,81.24
2017-01-13T03:31:52.619Z,81.24
2017-01-13T03:33:06.151Z,81.52
2017-01-13T03:34:19.721Z,81.99
2017-01-13T03:35:33.352Z,82.09
2017-01-13T03:36:47.247Z,81.71
2017-01-13T03:38:01.252Z,82.47
2017-01-13T03:39:14.866Z,82.09
2017-01-13T03:40:30.610Z,82.75
2017-01-13T03:41:44.385Z,83.32
2017-01-13T03:42:58.196Z,83.13
2017-01-13T03:44:11.742Z,83.32
2017-01-13T03:45:25.310Z,83.7
2017-01-13T03:46:38.936Z,83.66
2017-01-13T03:47:52.609Z,84.42
2017-01-13T03:49:06.498Z,84.32
2017-01-13T03:50:20.456Z,84.8
2017-01-13T03:51:34.019Z,85.17
2017-01-13T03:52:47.854Z,85.08
2017-01-13T03:54:01.381Z,85.36
2017-01-13T03:55:15.265Z,85.84
2017-01-13T03:56:28.802Z,85.46
2017-01-13T03:57:42.437Z,85.93
2017-01-13T03:58:55.955Z,85.65
2017-01-13T04:00:09.526Z,86.03
2017-01-13T04:01:24.194Z,86.88
2017-01-13T04:02:37.884Z,86.79
2017-01-13T04:03:51.404Z,86.88
2017-01-13T04:05:04.942Z,87.16
2017-01-13T04:06:18.553Z,87.26
2017-01-13T04:07:32.427Z,87.92
2017-01-13T04:08:46.036Z,87.54
2017-01-13T04:09:59.592Z,88.02
2017-01-13T04:11:13.118Z,88.11
2017-01-13T04:12:26.687Z,87.73
2017-01-13T04:13:40.999Z,88.68
2017-01-13T04:14:54.888Z,88.49
2017-01-13T04:16:08.455Z,88.4
2017-01-13T04:17:21.967Z,88.87
2017-01-13T04:18:35.667Z,88.4
2017-01-13T04:19:49.593Z,88.68
2017-01-13T04:21:03.147Z,88.59
2017-01-13T04:22:16.683Z,88.49
2017-01-13T04:23:30.211Z,89.44
2017-01-13T04:24:44.511Z,88.64
2017-01-13T04:25:58.190Z,88.87
2017-01-13T04:27:11.628Z,89.2
2017-01-13T04:28:25.522Z,89.2
2017-01-13T04:29:39.107Z,89.2
2017-01-13T04:30:52.951Z,89.34
2017-01-13T04:32:06.802Z,89.87
2017-01-13T04:33:20.460Z,89.87
2017-01-13T04:34:34.093Z,90.53
2017-01-13T04:35:48.071Z,90.63
2017-01-13T04:37:01.613Z,90.44
2017-01-13T04:38:15.485Z,90.72
2017-01-13T04:39:29.000Z,90.91
2017-01-13T04:41:15.276Z,90.63
2017-01-13T04:42:28.933Z,90.25
2017-01-13T04:43:42.771Z,90.06
2017-01-13T04:44:56.329Z,90.53
2017-01-13T04:46:10.258Z,90.91
2017-01-13T04:47:23.857Z,91
2017-01-13T04:48:37.372Z,90.63
2017-01-13T04:49:51.201Z,91.29
2017-01-13T04:51:04.807Z,90.63
2017-01-13T04:52:18.272Z,90.91
2017-01-13T04:53:31.787Z,91.48
2017-01-13T04:54:45.234Z,91
2017-01-13T04:56:00.427Z,91.67
2017-01-13T04:57:16.183Z,91.48
2017-01-13T04:58:30.179Z,91.1
2017-01-13T04:59:43.640Z,91.1
2017-01-13T05:00:57.277Z,91.1
2017-01-13T05:02:11.089Z,90.91
2017-01-13T05:03:25.123Z,91.38
2017-01-13T05:04:38.675Z,91.95
2017-01-13T05:05:53.129Z,91.67
2017-01-13T05:07:06.684Z,91.48
2017-01-13T05:08:20.421Z,91.57
2017-01-13T05:09:33.959Z,91.48
2017-01-13T05:10:47.476Z,91.95
2017-01-13T05:12:01.116Z,92.61
2017-01-13T05:13:14.703Z,92.61
2017-01-13T05:14:28.903Z,92.71
2017-01-13T05:15:42.414Z,92.71
2017-01-13T05:16:56.004Z,92.43
2017-01-13T05:18:09.579Z,92.9
2017-01-13T05:19:23.044Z,93.46
2017-01-13T05:20:36.975Z,93.46
2017-01-13T05:21:50.510Z,93.46
2017-01-13T05:23:04.081Z,93.27
2017-01-13T05:24:17.605Z,93.46
2017-01-13T05:25:31.141Z,93.84
2017-01-13T05:26:44.888Z,95.55
2017-01-13T05:27:58.528Z,93.61
2017-01-13T05:29:12.253Z,90.91
2017-01-13T05:30:23.469Z,88.73
2017-01-13T05:31:36.908Z,87.59
2017-01-13T05:32:50.803Z,88.87
2017-01-13T05:34:04.244Z,89.91
2017-01-13T05:35:17.699Z,90.63
2017-01-13T05:36:31.204Z,91.38
2017-01-13T05:37:44.721Z,91.76
2017-01-13T05:38:59.039Z,92.14
2017-01-13T05:40:12.986Z,92.24
2017-01-13T05:41:26.507Z,92.61
2017-01-13T05:42:40.099Z,92.71
2017-01-13T05:43:53.684Z,93.08
2017-01-13T05:45:07.476Z,93.46
2017-01-13T05:46:21.067Z,93.37
2017-01-13T05:47:34.728Z,93.46
2017-01-13T05:48:48.668Z,93.7
2017-01-13T05:50:02.197Z,93.7
2017-01-13T05:51:16.047Z,94.08
2017-01-13T05:52:29.577Z,94.46
2017-01-13T05:53:43.152Z,94.74
2017-01-13T05:54:56.741Z,94.46
2017-01-13T05:56:10.339Z,94.37
2017-01-13T05:57:24.274Z,94.13
2017-01-13T05:58:37.801Z,94.18
2017-01-13T05:59:52.001Z,94.08
2017-01-13T06:01:05.559Z,94.65
2017-01-13T06:02:19.214Z,95.4
2017-01-13T06:03:33.569Z,94.65
2017-01-13T06:04:48.162Z,94.84
2017-01-13T06:06:01.680Z,94.46
2017-01-13T06:07:15.172Z,94.65
2017-01-13T06:08:29.302Z,94.56
2017-01-13T06:09:43.153Z,94.84
2017-01-13T06:10:57.956Z,94.65
2017-01-13T06:12:11.561Z,94.56
2017-01-13T06:13:27.677Z,94.46
2017-01-13T06:14:41.736Z,94.84
2017-01-13T06:15:56.230Z,94.46
2017-01-13T06:17:09.705Z,94.74
2017-01-13T06:18:23.395Z,94.37
2017-01-13T06:19:36.870Z,94.37
2017-01-13T06:20:50.613Z,95.69
2017-01-13T06:25:00.337Z,94.93
2017-01-13T06:26:14.349Z,95.5
2017-01-13T06:27:28.204Z,95.31
2017-01-13T06:28:41.795Z,95.31
2017-01-13T06:29:55.340Z,95.5
2017-01-13T06:31:08.836Z,95.5
2017-01-13T06:32:22.372Z,95.88
2017-01-13T06:33:36.545Z,95.59
2017-01-13T06:34:50.382Z,95.5
2017-01-13T06:36:04.662Z,95.4
2017-01-13T06:37:18.351Z,95.59
2017-01-13T06:38:32.891Z,95.4
2017-01-13T06:39:47.113Z,95.69
2017-01-13T06:41:00.699Z,95.4
2017-01-13T06:42:15.869Z,95.88
2017-01-13T06:43:29.423Z,95.4
2017-01-13T06:44:42.955Z,95.31
2017-01-13T06:45:56.758Z,95.59
2017-01-13T06:47:10.337Z,95.5
2017-01-13T06:48:23.882Z,95.78
2017-01-13T06:49:37.627Z,95.97
2017-01-13T06:50:51.774Z,95.21
2017-01-13T06:52:05.552Z,95.5
2017-01-13T06:53:19.072Z,95.69
2017-01-13T06:54:32.762Z,95.4
2017-01-13T06:55:46.890Z,95.88
2017-01-13T06:57:00.441Z,95.88
2017-01-13T06:58:16.030Z,95.69
2017-01-13T06:59:29.589Z,95.69
2017-01-13T07:00:43.046Z,95.12
2017-01-13T07:01:56.886Z,95.5
2017-01-13T07:03:10.356Z,95.4
2017-01-13T07:04:25.799Z,95.5
2017-01-13T07:05:39.269Z,95.88
2017-01-13T07:06:53.129Z,95.69
2017-01-13T07:08:06.712Z,95.88
2017-01-13T07:09:20.273Z,95.5
2017-01-13T07:10:33.983Z,95.59
2017-01-13T07:11:47.495Z,95.59
2017-01-13T07:13:01.035Z,95.69
2017-01-13T07:14:15.023Z,95.4
2017-01-13T07:15:28.499Z,95.88
2017-01-13T07:16:42.404Z,95.31
2017-01-13T07:17:56.630Z,95.5
2017-01-13T07:19:11.036Z,95.31
2017-01-13T07:20:24.563Z,95.5
2017-01-13T07:21:38.075Z,94.65
2017-01-13T07:22:51.857Z,95.5
2017-01-13T07:24:05.330Z,95.21
2017-01-13T07:25:18.892Z,95.12
2017-01-13T07:26:32.414Z,95.21
2017-01-13T07:27:45.870Z,94.93
2017-01-13T07:28:59.645Z,94.84
2017-01-13T07:30:13.306Z,95.5
2017-01-13T07:31:29.045Z,95.31
2017-01-13T07:32:43.138Z,95.03
2017-01-13T07:33:56.794Z,94.93
2017-01-13T07:35:12.364Z,95.03
2017-01-13T07:36:26.293Z,95.03
2017-01-13T07:37:39.923Z,95.12
2017-01-13T07:38:53.417Z,94.98
2017-01-13T07:40:06.974Z,94.98
2017-01-13T07:41:21.092Z,95.36
2017-01-13T07:42:34.584Z,95.26
2017-01-13T07:43:48.705Z,95.31
2017-01-13T07:45:02.204Z,94.84
2017-01-13T07:46:17.581Z,94.93
2017-01-13T07:47:31.735Z,95.03
2017-01-13T07:48:46.026Z,95.4
2017-01-13T07:49:59.567Z,95.45
2017-01-13T07:51:13.153Z,94.7
2017-01-13T07:52:26.759Z,94.7
2017-01-13T07:53:40.539Z,94.6
2017-01-13T07:54:54.034Z,94.32
2017-01-13T07:56:07.559Z,94.7
2017-01-13T07:57:21.066Z,94.6
2017-01-13T07:58:34.533Z,94.51
2017-01-13T07:59:48.246Z,94.89
2017-01-13T08:01:01.690Z,94.42
2017-01-13T08:02:15.240Z,94.7
2017-01-13T08:03:28.763Z,94.79
2017-01-13T08:04:42.261Z,94.42
2017-01-13T08:05:56.248Z,95.36
2017-01-13T08:07:11.061Z,94.23
2017-01-13T08:08:24.510Z,94.32
2017-01-13T08:09:38.360Z,94.23
2017-01-13T08:10:51.862Z,94.89
2017-01-13T08:12:05.678Z,94.04
2017-01-13T08:13:20.442Z,94.51
2017-01-13T08:14:33.963Z,95.31
2017-01-13T08:15:47.384Z,94.74
2017-01-13T08:17:00.861Z,94.65
2017-01-13T08:18:14.719Z,94.46
2017-01-13T08:19:29.003Z,94.74
2017-01-13T08:20:42.466Z,95.4
2017-01-13T08:21:55.921Z,94.27
2017-01-13T08:23:09.464Z,94.74
2017-01-13T08:24:23.230Z,95.21
2017-01-13T08:25:36.680Z,94.84
2017-01-13T08:26:50.388Z,94.65
2017-01-13T08:28:04.776Z,94.74
2017-01-13T08:29:18.211Z,95.69
2017-01-13T08:30:31.977Z,94.84
2017-01-13T08:31:45.989Z,95.12
2017-01-13T08:32:59.505Z,95.31
2017-01-13T08:34:13.239Z,94.56
2017-01-13T08:35:26.784Z,94.65
2017-01-13T08:36:40.650Z,94.79
2017-01-13T08:37:54.550Z,94.56
2017-01-13T08:39:08.164Z,94.89
2017-01-13T08:40:21.766Z,94.51
2017-01-13T08:41:35.287Z,94.84
2017-01-13T08:42:49.137Z,94.56
2017-01-13T08:44:03.206Z,94.65
2017-01-13T08:45:17.450Z,94.46
2017-01-13T08:46:30.993Z,94.46
2017-01-13T08:47:46.754Z,94.84
2017-01-13T08:49:01.011Z,94.08
2017-01-13T08:50:14.663Z,93.75
2017-01-13T08:51:28.342Z,94.04
2017-01-13T08:52:42.235Z,93.46
2017-01-13T08:53:55.778Z,94.23
2017-01-13T08:55:10.126Z,93.46
2017-01-13T08:56:23.664Z,93.84
2017-01-13T08:57:37.691Z,93.46
2017-01-13T08:58:51.287Z,93.75
2017-01-13T09:00:04.889Z,93.94
2017-01-13T09:05:12.434Z,92.52
2017-01-13T09:06:26.255Z,92.33
2017-01-13T09:07:40.217Z,92.24
2017-01-13T09:08:53.750Z,92.61
2017-01-13T09:10:39.597Z,91.95
2017-01-13T09:11:53.452Z,91
2017-01-13T09:13:07.420Z,91.38
2017-01-13T09:14:21.404Z,91
2017-01-13T09:15:34.935Z,90.34
2017-01-13T09:18:18.272Z,90.06
2017-01-13T09:19:31.717Z,90.06
2017-01-13T09:20:45.292Z,89.77
2017-01-13T09:21:58.711Z,89.77
2017-01-13T09:23:12.128Z,89.68
2017-01-13T09:24:25.991Z,89.39
2017-01-13T09:25:39.500Z,89.58
2017-01-13T09:26:54.582Z,89.01
2017-01-13T09:28:07.990Z,88.82
2017-01-13T09:29:21.431Z,89.3
2017-01-13T09:30:35.190Z,88.45
2017-01-13T09:31:48.741Z,88.54
2017-01-13T09:33:02.195Z,88.07
2017-01-13T09:34:15.654Z,88.17
2017-01-13T09:35:29.069Z,87.59
2017-01-13T09:36:43.049Z,88.35
2017-01-13T09:37:57.000Z,87.88
2017-01-13T09:39:10.512Z,87.69
2017-01-13T09:40:24.002Z,86.98
2017-01-13T09:41:37.547Z,87.35
2017-01-13T09:42:51.738Z,87.83
2017-01-13T09:44:05.427Z,86.12
2017-01-13T09:45:18.925Z,86.5
2017-01-13T09:46:32.423Z,86.03
2017-01-13T09:47:46.151Z,85.65
2017-01-13T09:48:59.940Z,85.65
2017-01-13T09:50:13.415Z,85.74
2017-01-13T09:51:27.319Z,85.74
2017-01-13T09:52:41.503Z,85.55
2017-01-13T09:53:55.390Z,85.55
2017-01-13T09:55:09.103Z,85.65
2017-01-13T09:56:22.576Z,85.36
2017-01-13T09:57:36.167Z,84.8
2017-01-13T09:58:49.685Z,85.46
2017-01-13T10:00:03.183Z,84.8
2017-01-13T10:01:16.981Z,85.46
2017-01-13T10:02:30.536Z,85.08
2017-01-13T10:03:44.224Z,85.46
2017-01-13T10:04:57.645Z,85.65
2017-01-13T10:06:11.209Z,85.65
2017-01-13T10:07:25.413Z,84.89
2017-01-13T10:08:41.303Z,85.36
2017-01-13T10:09:54.897Z,86.12
2017-01-13T10:11:08.784Z,86.31
2017-01-13T10:12:22.307Z,85.46
2017-01-13T10:13:36.306Z,84.89
2017-01-13T10:14:49.863Z,84.7
2017-01-13T10:16:03.491Z,84.32
2017-01-13T10:17:17.058Z,84.89
2017-01-13T10:18:30.672Z,85.36
2017-01-13T10:19:44.825Z,85.17
2017-01-13T10:20:58.384Z,85.36
2017-01-13T10:22:11.886Z,85.17
2017-01-13T10:23:25.430Z,84.42
2017-01-13T10:24:39.440Z,83.85
2017-01-13T10:25:53.272Z,84.32
2017-01-13T10:27:06.838Z,84.04
2017-01-13T10:28:20.425Z,83.85
2017-01-13T10:29:34.102Z,83.66
2017-01-13T10:30:47.687Z,83.66
2017-01-13T10:32:01.663Z,83.94
2017-01-13T10:33:15.605Z,83.94
2017-01-13T10:34:29.912Z,84.04
2017-01-13T10:35:45.143Z,83.66
2017-01-13T10:36:59.076Z,83.66
2017-01-13T10:38:13.347Z,83.28
2017-01-13T10:39:27.372Z,82.52
2017-01-13T10:40:41.112Z,82.24
2017-01-13T10:41:54.642Z,81.99
2017-01-13T10:43:08.489Z,82.05
2017-01-13T10:44:22.291Z,82.28
2017-01-13T10:45:35.881Z,82.05
2017-01-13T10:47:29.254Z,82.24
2017-01-13T10:48:42.731Z,82.33
2017-01-13T10:49:56.943Z,82.05
2017-01-13T10:51:10.752Z,81.67
2017-01-13T10:52:24.293Z,82.14
2017-01-13T10:53:37.953Z,81.86
2017-01-13T10:54:51.417Z,81.67
2017-01-13T10:56:05.185Z,81.2
2017-01-13T10:57:18.941Z,81.1
2017-01-13T10:58:32.852Z,80.29
2017-01-13T10:59:46.431Z,80.76
2017-01-13T11:00:59.975Z,80.53
2017-01-13T11:02:14.205Z,79.53
2017-01-13T11:05:11.004Z,79.68
2017-01-13T11:06:24.708Z,79.39
2017-01-13T11:07:38.681Z,80.25
2017-01-13T11:08:52.299Z,80.15
2017-01-13T11:10:05.916Z,80.38
2017-01-13T11:11:19.444Z,80.57
2017-01-13T11:12:32.991Z,79.72
2017-01-13T11:13:47.320Z,79.34
2017-01-13T11:15:01.200Z,79.34
2017-01-13T11:16:14.821Z,79.63
2017-01-13T11:17:28.489Z,79.44
2017-01-13T11:18:42.181Z,79.91
2017-01-13T11:19:56.453Z,79.82
2017-01-13T11:21:09.951Z,79.72
2017-01-13T11:22:23.628Z,79.91
2017-01-13T11:23:37.168Z,79.44
2017-01-13T11:24:50.755Z,79.63
2017-01-13T11:26:07.271Z,80.38
2017-01-13T11:27:20.712Z,79.91
2017-01-13T11:28:34.340Z,79.44
2017-01-13T11:29:47.888Z,79.63
2017-01-13T11:31:01.587Z,79.34
2017-01-13T11:32:15.492Z,79.63
2017-01-13T11:33:29.012Z,79.63
2017-01-13T11:34:42.633Z,79.06
2017-01-13T11:35:56.318Z,78.77
2017-01-13T11:37:11.122Z,78.77
2017-01-13T11:38:24.948Z,78.3
2017-01-13T11:39:38.516Z,78.11
2017-01-13T11:40:52.064Z,77.64
2017-01-13T11:42:05.809Z,78.2
2017-01-13T11:43:19.778Z,78.87
2017-01-13T11:44:33.575Z,78.2
2017-01-13T11:45:47.118Z,78.3
2017-01-13T11:47:00.788Z,78.2
2017-01-13T11:48:14.333Z,77.73
2017-01-13T11:49:28.051Z,77.73
2017-01-13T11:50:41.829Z,77.35
2017-01-13T11:51:55.365Z,76.87
2017-01-13T11:53:08.925Z,77.45
2017-01-13T11:54:22.940Z,77.35
2017-01-13T11:55:36.487Z,77.35
2017-01-13T11:56:50.440Z,77.64
2017-01-13T11:58:14.048Z,77.64
2017-01-13T11:59:27.559Z,77.35
2017-01-13T12:00:41.093Z,77.45
2017-01-13T12:01:54.814Z,77.54
2017-01-13T12:03:08.713Z,77.73
2017-01-13T12:04:42.296Z,77.54
2017-01-13T12:05:55.826Z,77.16
2017-01-13T12:07:09.341Z,77.25
2017-01-13T12:08:23.142Z,77.35
2017-01-13T12:09:46.786Z,77.54
2017-01-13T12:11:00.269Z,77.25
2017-01-13T12:12:14.821Z,77.83
2017-01-13T12:13:28.326Z,77.64
2017-01-13T12:14:42.082Z,77.45
2017-01-13T12:15:55.720Z,77.35
2017-01-13T12:17:09.252Z,77.64
2017-01-13T12:18:23.300Z,78.39
2017-01-13T12:19:37.014Z,77.35
2017-01-13T12:20:51.523Z,77.45
2017-01-13T12:22:05.585Z,77.73
2017-01-13T12:23:19.116Z,76.5
2017-01-13T12:24:32.600Z,76.5
2017-01-13T12:25:46.369Z,76.87
2017-01-13T12:27:00.143Z,77.16
2017-01-13T12:28:13.657Z,76.87
2017-01-13T12:29:27.180Z,76.4
2017-01-13T12:30:41.185Z,77.06
2017-01-13T12:31:55.310Z,76.97
2017-01-13T12:33:09.440Z,76.21
2017-01-13T12:34:22.927Z,76.4
2017-01-13T12:35:36.452Z,76.31
2017-01-13T12:36:50.115Z,75.74
2017-01-13T12:38:03.719Z,76.31
2017-01-13T12:39:18.722Z,75.45
2017-01-13T12:40:32.262Z,75.26
2017-01-13T12:41:46.372Z,74.98
2017-01-13T12:43:02.232Z,76.4
2017-01-13T12:44:16.300Z,75.36
2017-01-13T12:45:30.761Z,74.6
2017-01-13T12:46:44.385Z,74.6
2017-01-13T12:47:57.934Z,74.69
2017-01-13T12:49:11.544Z,74.35
2017-01-13T12:50:25.080Z,74.64
2017-01-13T12:51:38.953Z,74.35
2017-01-13T12:52:52.653Z,73.79
2017-01-13T12:54:06.181Z,73.69
2017-01-13T12:55:19.829Z,73.88
2017-01-13T12:56:33.462Z,74.26
2017-01-13T12:57:47.440Z,74.07
2017-01-13T12:59:01.114Z,74.35
2017-01-13T13:00:14.784Z,73.97
2017-01-13T13:01:28.279Z,74.26
2017-01-13T13:02:41.808Z,74.83
2017-01-13T13:04:15.419Z,74.6
2017-01-13T13:05:28.915Z,75.26
2017-01-13T13:06:42.516Z,75.84
2017-01-13T13:07:56.045Z,75.84
2017-01-13T13:09:09.596Z,76.68
2017-01-13T13:10:23.950Z,76.59
2017-01-13T13:11:37.477Z,77.25
2017-01-13T13:12:50.972Z,76.68
2017-01-13T13:14:04.574Z,76.15
2017-01-13T13:15:18.101Z,76.12
2017-01-13T13:16:31.870Z,76.21
2017-01-13T13:17:45.425Z,77.06
2017-01-13T13:18:59.015Z,77.16
2017-01-13T13:20:22.676Z,76.78
2017-01-13T13:21:36.202Z,76.73
2017-01-13T13:22:50.177Z,77.29
2017-01-13T13:24:04.240Z,77.35
2017-01-13T13:25:18.209Z,76.97
2017-01-13T13:26:41.769Z,77.06
2017-01-13T13:27:55.805Z,77.25
2017-01-13T13:29:09.691Z,77.45
2017-01-13T13:30:23.985Z,77.73
2017-01-13T13:31:47.564Z,77.35
2017-01-13T13:33:01.745Z,78.11
2017-01-13T13:34:15.648Z,78.77
2017-01-13T13:35:30.637Z,78.39
2017-01-13T13:36:44.139Z,79.06
2017-01-13T13:37:58.466Z,79.82
2017-01-13T13:39:11.941Z,79.72
2017-01-13T13:40:25.508Z,79.34
2017-01-13T13:41:39.322Z,78.96
2017-01-13T13:42:52.932Z,78.77
2017-01-13T13:44:06.471Z,78.58
2017-01-13T13:45:20.003Z,78.96
2017-01-13T13:46:33.751Z,78.11
2017-01-13T13:47:48.860Z,78.11
2017-01-13T13:49:02.294Z,77.83
2017-01-13T13:50:15.764Z,78.2
2017-01-13T13:51:29.282Z,78.02
2017-01-13T13:52:42.902Z,77.92
2017-01-13T13:54:06.734Z,78.2
2017-01-13T13:55:20.629Z,78.58
2017-01-13T13:56:34.080Z,78.77
2017-01-13T13:57:47.594Z,78.58
2017-01-13T13:59:01.778Z,78.77
2017-01-13T14:00:17.861Z,78.58
2017-01-13T14:01:31.491Z,78.87
2017-01-13T14:02:44.990Z,78.58
2017-01-13T14:03:59.055Z,79.06
2017-01-13T14:05:12.535Z,79.25
2017-01-13T14:06:26.283Z,79.34
2017-01-13T14:07:39.755Z,79.15
2017-01-13T14:08:53.225Z,79.25
2017-01-13T14:10:46.450Z,79.34
2017-01-13T14:12:00.638Z,78.77
2017-01-13T14:13:14.602Z,78.58
2017-01-13T14:14:28.465Z,78.58
2017-01-13T14:15:41.974Z,77.73
2017-01-13T14:16:55.518Z,77.83
2017-01-13T14:18:09.333Z,77.45
2017-01-13T14:19:22.831Z,77.83
2017-01-13T14:20:36.877Z,77.83
2017-01-13T14:21:50.528Z,77.54
2017-01-13T14:23:04.351Z,77.45
2017-01-13T14:24:18.134Z,76.59
2017-01-13T14:25:31.607Z,77.06
2017-01-13T14:26:45.641Z,76.97
2017-01-13T14:27:59.112Z,76.59
2017-01-13T14:29:12.885Z,76.87
2017-01-13T14:30:26.374Z,76.87
2017-01-13T14:31:39.887Z,77.16
2017-01-13T14:32:53.445Z,76.31
2017-01-13T14:34:07.079Z,76.5
2017-01-13T14:35:20.592Z,76.12
2017-01-13T14:36:35.750Z,76.5
2017-01-13T14:37:49.892Z,76.68
2017-01-13T14:39:05.282Z,76.5
2017-01-13T14:40:19.651Z,76.87
2017-01-13T14:41:33.242Z,76.78
2017-01-13T14:42:48.480Z,77.25
2017-01-13T14:44:02.569Z,77.35
2017-01-13T14:45:16.489Z,77.54
2017-01-13T14:46:30.210Z,77.35
2017-01-13T14:47:44.265Z,77.45
2017-01-13T14:48:59.231Z,78.02
2017-01-13T14:50:12.740Z,77.83
2017-01-13T14:51:26.487Z,77.45
2017-01-13T14:52:40.060Z,77.45
2017-01-13T14:54:03.725Z,77.64
2017-01-13T14:55:17.557Z,77.92
2017-01-13T14:56:31.494Z,77.16
2017-01-13T14:57:45.080Z,77.35
2017-01-13T14:58:58.641Z,76.68
2017-01-13T15:00:12.429Z,77.35
2017-01-13T15:01:26.681Z,77.45
2017-01-13T15:02:40.363Z,77.45
2017-01-13T15:03:53.817Z,77.25
2017-01-13T15:05:07.590Z,76.68
2017-01-13T15:06:21.187Z,76.5
2017-01-13T15:07:35.607Z,76.78
2017-01-13T15:08:49.173Z,76.68
2017-01-13T15:10:05.094Z,76.03
2017-01-13T15:11:19.278Z,76.5
2017-01-13T15:12:32.784Z,76.5
2017-01-13T15:13:47.064Z,76.31
2017-01-13T15:15:00.800Z,76.31
2017-01-13T15:16:14.923Z,76.21
2017-01-13T15:20:43.020Z,75.17
2017-01-13T15:21:56.626Z,74.98
2017-01-13T15:23:10.758Z,75.07
2017-01-13T15:24:24.485Z,74.6
2017-01-13T15:25:38.403Z,74.03
2017-01-13T15:26:52.088Z,74.41
2017-01-13T15:28:05.623Z,74.32
2017-01-13T15:29:19.121Z,74.32
2017-01-13T15:30:32.755Z,74.41
2017-01-13T15:31:47.115Z,74.41
2017-01-13T15:33:00.815Z,74.03
2017-01-13T15:34:14.348Z,73.56
2017-01-13T15:35:28.178Z,74.13
2017-01-13T15:36:41.672Z,73.65
2017-01-13T15:37:55.963Z,74.22
2017-01-13T15:39:09.531Z,74.22
2017-01-13T15:40:23.307Z,74.22
2017-01-13T15:41:36.897Z,73.94
2017-01-13T15:42:50.460Z,73.94
2017-01-13T15:44:04.253Z,73.56
2017-01-13T15:45:17.749Z,73.75
2017-01-13T15:46:31.400Z,73.65
2017-01-13T15:47:55.075Z,74.13
2017-01-13T15:49:09.107Z,74.41
2017-01-13T15:50:22.849Z,73.56
2017-01-13T15:51:36.281Z,73.75
2017-01-13T15:52:50.037Z,73.84
2017-01-13T15:54:03.636Z,73.56
2017-01-13T15:55:17.162Z,73.84
2017-01-13T15:56:31.074Z,73.75
2017-01-13T15:57:46.023Z,73.75
2017-01-13T15:59:01.461Z,73.75
2017-01-13T16:00:24.631Z,72.99
2017-01-13T16:01:44.477Z,72.99
2017-01-13T16:03:09.213Z,72.42
2017-01-13T16:04:23.351Z,73.27
2017-01-13T16:05:37.435Z,72.52
2017-01-13T16:06:52.585Z,72.71
2017-01-13T16:08:06.853Z,72.61
2017-01-13T16:09:20.802Z,72.04
2017-01-13T16:10:34.624Z,72.71
2017-01-13T16:11:49.078Z,72.89
2017-01-13T16:13:02.971Z,72.33